Time;durP1;ratioP1;P1;durP2;ratioP2;P2;SDS_P1;SDS_P2;PMS_P1;PMS_P2;Temp;Humidity;BMP_temperature;BMP_pressure;BME280_temperature;BME280_humidity;BME280_pressure;Samples;Min_cycle;Max_cycle;Signal;HPM_P1;HPM_P2
2023/03/25 00:00:21;;;;;;;0.10;0.10;;;17.80;89.00;;;;;;5045025;27;45123;-76
2023/03/25 00:02:50;;;;;;;0.75;0.17;;;17.80;87.90;;;;;;5045003;27;45530;-76
2023/03/25 00:05:20;;;;;;;0.65;0.30;;;17.70;88.50;;;;;;5044662;28;46863;-76
2023/03/25 00:07:49;;;;;;;0.77;0.20;;;17.80;88.40;;;;;;5043616;28;45260;-76
2023/03/25 00:10:16;;;;;;;0.35;0.20;;;17.70;88.60;;;;;;5123585;27;45163;-76
2023/03/25 00:12:43;;;;;;;0.40;0.13;;;17.70;88.70;;;;;;5129644;27;45579;-76
2023/03/25 00:15:12;;;;;;;0.38;0.10;;;17.70;88.70;;;;;;5129479;27;46179;-76
2023/03/25 00:17:39;;;;;;;0.15;0.10;;;17.70;88.70;;;;;;5129361;27;45237;-76
2023/03/25 00:20:09;;;;;;;0.22;0.10;;;17.70;88.70;;;;;;5129304;27;45180;-76
2023/03/25 00:22:39;;;;;;;0.60;0.20;;;17.70;88.70;;;;;;5129684;27;45057;-76
2023/03/25 00:25:08;;;;;;;0.30;0.10;;;17.70;88.70;;;;;;5129472;27;47527;-76
2023/03/25 00:27:35;;;;;;;0.10;0.10;;;17.70;88.70;;;;;;5129085;27;45107;-76
2023/03/25 00:30:02;;;;;;;0.63;0.20;;;17.70;88.60;;;;;;5129221;27;45148;-76
2023/03/25 00:32:29;;;;;;;0.88;0.10;;;17.70;88.50;;;;;;5129689;27;45186;-77
2023/03/25 00:34:56;;;;;;;0.15;0.10;;;17.70;88.60;;;;;;5128810;27;48456;-76
2023/03/25 00:37:24;;;;;;;0.05;0.05;;;17.70;88.60;;;;;;5129034;27;45088;-76
2023/03/25 00:39:52;;;;;;;0.30;0.10;;;17.70;88.00;;;;;;5129139;27;45227;-76
2023/03/25 00:42:24;;;;;;;1.42;0.40;;;17.70;88.00;;;;;;5132308;27;45425;-76
2023/03/25 00:44:52;;;;;;;0.10;0.10;;;17.70;87.90;;;;;;5129411;27;45295;-76
2023/03/25 00:47:20;;;;;;;0.68;0.30;;;17.80;87.90;;;;;;5128233;27;45369;-76
2023/03/25 00:49:47;;;;;;;0.43;0.20;;;17.70;87.90;;;;;;5129078;27;45227;-76
2023/03/25 00:52:14;;;;;;;0.10;0.10;;;17.80;88.20;;;;;;5129213;27;45583;-76
2023/03/25 00:54:42;;;;;;;0.13;0.10;;;17.70;88.10;;;;;;5128722;27;46381;-76
2023/03/25 00:57:10;;;;;;;0.70;0.20;;;17.70;88.00;;;;;;5128543;27;45274;-77
2023/03/25 00:59:37;;;;;;;0.35;0.10;;;17.70;88.50;;;;;;5128868;27;45226;-77
2023/03/25 01:02:05;;;;;;;0.32;0.10;;;17.70;88.40;;;;;;5129003;27;45138;-76
2023/03/25 01:04:32;;;;;;;1.50;0.28;;;17.70;88.60;;;;;;5128627;27;45324;-77
2023/03/25 01:07:00;;;;;;;0.50;0.20;;;17.70;88.30;;;;;;5128799;27;45145;-76
2023/03/25 01:09:27;;;;;;;0.20;0.20;;;17.70;88.10;;;;;;5128753;27;45162;-77
2023/03/25 01:11:54;;;;;;;0.55;0.20;;;17.70;88.40;;;;;;5128643;27;45592;-76
2023/03/25 01:14:26;;;;;;;1.40;0.30;;;17.70;88.00;;;;;;5128546;27;45491;-76
2023/03/25 01:16:53;;;;;;;0.40;0.17;;;17.70;87.80;;;;;;5128340;27;45199;-77
2023/03/25 01:19:19;;;;;;;2.53;0.50;;;17.70;88.20;;;;;;5128322;27;45190;-76
2023/03/25 01:21:46;;;;;;;1.42;0.30;;;17.70;88.40;;;;;;5128877;27;45119;-76
2023/03/25 01:24:15;;;;;;;0.95;0.32;;;17.70;88.10;;;;;;5128637;27;47532;-76
2023/03/25 01:26:44;;;;;;;1.23;0.40;;;17.70;88.30;;;;;;5128634;27;45162;-76
2023/03/25 01:29:12;;;;;;;1.40;0.30;;;17.70;87.70;;;;;;5128373;27;45287;-76
2023/03/25 01:31:40;;;;;;;1.92;0.30;;;17.70;87.80;;;;;;5128901;27;45337;-76
2023/03/25 01:34:08;;;;;;;1.45;0.20;;;17.70;87.70;;;;;;5131591;27;45440;-76
2023/03/25 01:36:36;;;;;;;1.70;0.30;;;17.70;87.40;;;;;;5128388;27;45353;-76
2023/03/25 01:39:05;;;;;;;1.10;0.52;;;17.70;87.50;;;;;;5138517;27;45401;-76
2023/03/25 01:41:34;;;;;;;0.65;0.20;;;17.70;87.50;;;;;;5134472;27;45564;-77
2023/03/25 01:44:06;;;;;;;0.93;0.30;;;17.70;87.60;;;;;;5128547;27;46826;-77
2023/03/25 01:46:33;;;;;;;0.22;0.10;;;17.80;87.10;;;;;;5128561;27;45969;-76
2023/03/25 01:49:04;;;;;;;0.10;0.10;;;17.80;87.70;;;;;;5127889;27;45139;-77
2023/03/25 01:51:34;;;;;;;0.45;0.15;;;17.80;87.50;;;;;;5125450;27;45263;-77
2023/03/25 01:54:01;;;;;;;1.15;0.20;;;17.80;87.40;;;;;;5128259;27;47385;-77
2023/03/25 01:56:33;;;;;;;1.38;0.25;;;17.70;86.80;;;;;;5127686;27;45296;-77
2023/03/25 01:59:03;;;;;;;1.83;0.30;;;17.70;86.70;;;;;;5059370;27;45081;-76
2023/03/25 02:01:31;;;;;;;0.50;0.20;;;17.80;86.80;;;;;;5043604;28;45300;-76
2023/03/25 02:04:01;;;;;;;2.55;0.30;;;17.80;86.10;;;;;;5043250;28;47506;-77
2023/03/25 02:06:34;;;;;;;0.32;0.20;;;17.70;87.50;;;;;;5043422;28;45198;-76
2023/03/25 02:09:05;;;;;;;0.68;0.38;;;17.70;87.50;;;;;;5043786;28;45291;-76
2023/03/25 02:11:32;;;;;;;0.10;0.10;;;17.70;87.10;;;;;;5043512;28;45370;-76
2023/03/25 02:14:02;;;;;;;0.85;0.30;;;17.70;87.50;;;;;;5043016;28;46582;-76
2023/03/25 02:16:37;;;;;;;0.43;0.13;;;17.60;87.30;;;;;;5043007;28;45192;-76
2023/03/25 02:19:26;;;;;;;2.08;0.20;;;17.60;87.20;;;;;;5043284;28;45209;-76
2023/03/25 02:22:25;;;;;;;0.45;0.15;;;17.60;87.60;;;;;;5043586;28;45072;-77
2023/03/25 02:25:19;;;;;;;0.40;0.13;;;17.60;87.70;;;;;;5022390;28;46898;-76
2023/03/25 02:28:01;;;;;;;0.25;0.20;;;17.70;87.70;;;;;;5043389;28;45136;-76
2023/03/25 02:31:14;;;;;;;0.30;0.20;;;17.70;88.50;;;;;;5044097;28;45275;-77
2023/03/25 02:34:07;;;;;;;0.45;0.20;;;17.70;87.20;;;;;;5040856;28;45219;-76
2023/03/25 02:36:57;;;;;;;1.08;0.28;;;17.70;87.40;;;;;;5045845;28;48034;-76
2023/03/25 02:39:34;;;;;;;0.57;0.20;;;17.70;87.20;;;;;;5046022;28;45236;-77
2023/03/25 02:42:08;;;;;;;0.38;0.10;;;17.70;87.00;;;;;;5046438;28;45212;-76
2023/03/25 02:44:40;;;;;;;0.20;0.17;;;17.70;86.80;;;;;;5046068;28;45363;-76
2023/03/25 02:47:13;;;;;;;0.13;0.13;;;17.70;86.60;;;;;;5045357;28;47554;-76
2023/03/25 02:49:44;;;;;;;0.00;0.00;;;17.70;86.60;;;;;;5045488;28;45164;-76
2023/03/25 02:52:14;;;;;;;0.57;0.17;;;17.70;86.40;;;;;;5046250;28;45070;-76
2023/03/25 02:54:44;;;;;;;0.30;0.10;;;17.70;86.70;;;;;;5045953;28;45581;-76
2023/03/25 02:57:15;;;;;;;1.88;0.15;;;17.70;86.40;;;;;;5045266;28;47378;-77
2023/03/25 02:59:44;;;;;;;0.65;0.30;;;17.70;86.40;;;;;;5042879;28;45285;-77
2023/03/25 03:02:11;;;;;;;0.80;0.30;;;17.70;86.30;;;;;;5045467;28;45244;-76
2023/03/25 03:04:47;;;;;;;0.10;0.10;;;17.70;86.00;;;;;;5045879;28;45403;-77
2023/03/25 03:07:22;;;;;;;0.73;0.35;;;17.70;86.10;;;;;;5045356;28;45386;-77
2023/03/25 03:09:59;;;;;;;1.17;0.28;;;17.70;86.30;;;;;;5045623;28;45289;-76
2023/03/25 03:12:39;;;;;;;0.10;0.10;;;17.70;86.40;;;;;;5045642;28;45168;-77
2023/03/25 03:15:18;;;;;;;0.93;0.20;;;17.70;86.30;;;;;;5045735;28;45357;-76
2023/03/25 03:17:49;;;;;;;1.23;0.40;;;17.70;86.60;;;;;;5045297;28;45203;-77
2023/03/25 03:20:24;;;;;;;0.40;0.30;;;17.70;86.40;;;;;;5045455;28;45305;-76
2023/03/25 03:23:00;;;;;;;1.08;0.20;;;17.70;86.60;;;;;;5045816;28;45111;-77
2023/03/25 03:25:32;;;;;;;0.93;0.20;;;17.70;86.40;;;;;;5045572;28;45126;-77
2023/03/25 03:28:05;;;;;;;0.20;0.10;;;17.70;86.20;;;;;;5045280;28;47116;-77
2023/03/25 03:30:42;;;;;;;0.43;0.20;;;17.70;86.30;;;;;;5045270;28;45393;-77
2023/03/25 03:33:15;;;;;;;0.80;0.20;;;17.70;86.00;;;;;;5045277;28;45209;-77
2023/03/25 03:35:48;;;;;;;0.22;0.20;;;17.70;85.90;;;;;;5045825;28;45193;-77
2023/03/25 03:38:19;;;;;;;0.20;0.10;;;17.70;85.60;;;;;;5044828;28;45316;-77
2023/03/25 03:40:52;;;;;;;1.35;0.73;;;17.70;85.20;;;;;;5045122;28;45126;-76
2023/03/25 03:43:25;;;;;;;1.10;0.28;;;17.70;85.10;;;;;;5045352;28;45093;-77
2023/03/25 03:45:57;;;;;;;1.95;0.40;;;17.70;84.60;;;;;;5045386;28;45464;-77
2023/03/25 03:48:27;;;;;;;0.30;0.20;;;17.70;84.30;;;;;;5044339;28;46867;-76
2023/03/25 03:51:00;;;;;;;1.20;0.25;;;17.70;84.50;;;;;;5045381;28;45265;-76
2023/03/25 03:53:32;;;;;;;0.65;0.20;;;17.70;83.50;;;;;;5045151;28;45222;-77
2023/03/25 03:56:05;;;;;;;0.65;0.20;;;17.70;83.40;;;;;;5045051;28;45198;-76
2023/03/25 03:58:36;;;;;;;0.40;0.20;;;17.70;84.20;;;;;;5044962;28;48397;-76
2023/03/25 04:01:09;;;;;;;0.73;0.22;;;17.70;84.70;;;;;;5045037;28;45260;-76
2023/03/25 04:03:41;;;;;;;1.40;0.28;;;17.70;85.10;;;;;;5045054;28;45305;-77
2023/03/25 04:06:16;;;;;;;0.90;0.30;;;17.70;85.50;;;;;;5036099;28;45212;-76
2023/03/25 04:08:50;;;;;;;1.10;0.20;;;17.70;85.80;;;;;;5024911;28;46398;-77
2023/03/25 04:11:23;;;;;;;0.28;0.08;;;17.70;85.30;;;;;;5024892;28;45188;-76
2023/03/25 04:13:53;;;;;;;0.95;0.28;;;17.70;85.70;;;;;;5024672;28;45157;-77
2023/03/25 04:16:20;;;;;;;0.75;0.10;;;17.70;85.70;;;;;;5024916;28;45397;-77
2023/03/25 04:18:47;;;;;;;0.82;0.28;;;17.80;85.70;;;;;;5024441;28;45714;-77
2023/03/25 04:21:16;;;;;;;0.60;0.20;;;17.80;85.90;;;;;;5024458;28;45311;-77
2023/03/25 04:23:44;;;;;;;0.65;0.32;;;17.80;85.40;;;;;;5024825;28;45179;-77
2023/03/25 04:26:12;;;;;;;2.70;0.35;;;17.70;85.00;;;;;;5025303;28;45198;-77
2023/03/25 04:28:43;;;;;;;0.35;0.20;;;17.70;85.00;;;;;;5024326;28;47789;-76
2023/03/25 04:31:14;;;;;;;0.15;0.10;;;17.70;84.10;;;;;;5024396;28;45216;-77
2023/03/25 04:33:41;;;;;;;0.80;0.20;;;17.70;84.10;;;;;;5024837;28;45162;-77
2023/03/25 04:36:09;;;;;;;0.90;0.20;;;17.70;83.80;;;;;;5024788;28;45070;-77
2023/03/25 04:38:36;;;;;;;4.60;0.32;;;17.70;83.30;;;;;;5024274;28;46608;-77
2023/03/25 04:41:05;;;;;;;0.90;0.20;;;17.70;83.80;;;;;;5024472;28;45220;-76
2023/03/25 04:43:33;;;;;;;0.73;0.20;;;17.70;83.60;;;;;;5024235;28;45291;-76
2023/03/25 04:46:01;;;;;;;0.45;0.20;;;17.70;83.70;;;;;;5024700;28;45139;-76
2023/03/25 04:48:30;;;;;;;0.73;0.10;;;17.70;84.60;;;;;;5023755;28;45503;-77
2023/03/25 04:50:57;;;;;;;0.35;0.17;;;17.70;84.30;;;;;;5024104;28;45140;-76
2023/03/25 04:53:24;;;;;;;0.77;0.20;;;17.70;84.50;;;;;;5024036;28;45196;-77
2023/03/25 04:55:51;;;;;;;2.08;0.35;;;17.70;84.90;;;;;;5024573;28;45194;-76
2023/03/25 04:58:18;;;;;;;0.20;0.03;;;17.70;84.70;;;;;;5024245;28;47381;-77
2023/03/25 05:00:49;;;;;;;2.63;0.30;;;17.80;85.00;;;;;;5024451;28;45280;-76
2023/03/25 05:03:22;;;;;;;0.88;0.20;;;17.80;84.70;;;;;;5024483;28;45265;-76
2023/03/25 05:05:49;;;;;;;0.57;0.20;;;17.80;84.70;;;;;;5024414;28;45489;-76
2023/03/25 05:08:17;;;;;;;2.00;0.30;;;17.80;84.50;;;;;;5023925;28;46940;-76
2023/03/25 05:10:43;;;;;;;1.10;0.20;;;17.80;84.60;;;;;;5024099;28;45346;-77
2023/03/25 05:13:10;;;;;;;0.60;0.20;;;17.80;84.40;;;;;;5024120;28;45198;-76
2023/03/25 05:15:39;;;;;;;2.17;0.22;;;17.70;84.50;;;;;;5024406;28;45103;-76
2023/03/25 05:18:09;;;;;;;1.33;0.30;;;18.00;84.60;;;;;;5023562;28;47540;-76
2023/03/25 05:20:38;;;;;;;0.68;0.17;;;17.70;83.90;;;;;;5024016;28;45862;-76
2023/03/25 05:23:10;;;;;;;1.10;0.22;;;17.70;83.70;;;;;;5024201;28;45245;-76
2023/03/25 05:25:38;;;;;;;0.73;0.20;;;17.80;83.20;;;;;;5023926;28;45607;-76
2023/03/25 05:28:08;;;;;;;1.27;0.30;;;17.70;83.20;;;;;;5023858;28;47336;-76
2023/03/25 05:30:38;;;;;;;0.43;0.17;;;17.70;83.20;;;;;;5024101;28;45292;-76
2023/03/25 05:33:05;;;;;;;0.73;0.20;;;17.70;82.70;;;;;;5023827;28;45285;-76
2023/03/25 05:35:31;;;;;;;0.40;0.13;;;17.70;82.40;;;;;;5023977;28;45299;-76
2023/03/25 05:38:00;;;;;;;0.40;0.30;;;17.70;82.40;;;;;;5023720;28;46503;-76
2023/03/25 05:40:27;;;;;;;4.05;0.20;;;17.70;83.00;;;;;;5023607;28;45126;-76
2023/03/25 05:42:54;;;;;;;0.90;0.30;;;17.70;83.60;;;;;;5023747;28;45077;-76
2023/03/25 05:45:22;;;;;;;0.50;0.30;;;17.70;83.90;;;;;;5023538;28;45548;-77
2023/03/25 05:47:48;;;;;;;0.95;0.30;;;17.70;84.00;;;;;;5023002;28;45230;-76
2023/03/25 05:50:15;;;;;;;1.00;0.20;;;17.70;84.00;;;;;;5023917;28;45230;-77
2023/03/25 05:52:42;;;;;;;1.30;0.32;;;17.80;84.00;;;;;;5023566;28;45193;-76
2023/03/25 05:55:15;;;;;;;0.75;0.20;;;17.80;84.20;;;;;;5026347;28;45385;-76
2023/03/25 05:57:42;;;;;;;0.28;0.10;;;17.80;84.10;;;;;;5023439;28;48046;-76
2023/03/25 06:00:11;;;;;;;0.10;0.10;;;17.80;84.20;;;;;;5023465;28;45146;-77
2023/03/25 06:02:41;;;;;;;0.50;0.20;;;17.80;84.00;;;;;;5023598;28;45233;-76
2023/03/25 06:05:12;;;;;;;0.15;0.10;;;17.80;83.50;;;;;;5022834;28;45194;-76
2023/03/25 06:07:41;;;;;;;2.47;0.30;;;17.80;83.60;;;;;;5023320;28;48211;-76
2023/03/25 06:10:09;;;;;;;0.63;0.40;;;17.70;82.90;;;;;;5023030;28;45967;-76
2023/03/25 06:12:38;;;;;;;0.68;0.20;;;17.70;83.10;;;;;;5023467;28;45158;-77
2023/03/25 06:15:06;;;;;;;0.85;0.20;;;17.70;82.70;;;;;;5023485;28;45505;-76
2023/03/25 06:17:33;;;;;;;1.25;0.30;;;17.70;81.80;;;;;;5022880;28;48101;-77
2023/03/25 06:20:05;;;;;;;1.20;0.30;;;17.70;82.00;;;;;;5023001;28;45326;-77
2023/03/25 06:22:32;;;;;;;2.47;0.10;;;17.70;81.50;;;;;;5023172;28;45387;-77
2023/03/25 06:25:00;;;;;;;1.50;0.20;;;17.70;81.40;;;;;;5023692;28;45062;-77
2023/03/25 06:27:27;;;;;;;1.30;0.35;;;17.70;81.40;;;;;;5023126;28;46615;-77
2023/03/25 06:29:55;;;;;;;1.23;0.10;;;17.80;82.80;;;;;;5023016;28;45186;-77
2023/03/25 06:32:24;;;;;;;0.90;0.30;;;17.80;83.00;;;;;;5023102;28;45146;-77
2023/03/25 06:34:51;;;;;;;2.05;0.30;;;17.70;82.90;;;;;;5023157;28;45522;-77
2023/03/25 06:37:18;;;;;;;0.73;0.28;;;17.80;83.50;;;;;;5022546;28;46583;-77
2023/03/25 06:39:45;;;;;;;0.60;0.28;;;17.80;83.40;;;;;;5022623;28;45367;-77
2023/03/25 06:42:12;;;;;;;0.75;0.20;;;17.80;83.60;;;;;;5023074;28;45137;-77
2023/03/25 06:44:39;;;;;;;0.13;0.10;;;17.80;83.20;;;;;;5022717;28;45149;-76
2023/03/25 06:47:07;;;;;;;0.68;0.30;;;17.80;83.40;;;;;;5022787;28;47926;-76
2023/03/25 06:49:34;;;;;;;1.45;0.40;;;17.80;83.50;;;;;;5022791;28;45657;-77
2023/03/25 06:52:01;;;;;;;2.63;0.32;;;17.80;83.40;;;;;;5022676;28;45210;-77
2023/03/25 06:54:27;;;;;;;1.85;0.40;;;17.80;83.20;;;;;;5022941;28;45121;-77
2023/03/25 06:56:54;;;;;;;0.90;0.28;;;17.80;82.70;;;;;;5022293;28;46389;-77
2023/03/25 06:59:21;;;;;;;0.50;0.20;;;17.70;82.80;;;;;;5022819;28;45383;-77
2023/03/25 07:01:48;;;;;;;0.70;0.30;;;17.70;82.00;;;;;;5022742;28;45228;-76
2023/03/25 07:04:16;;;;;;;0.20;0.17;;;17.70;82.20;;;;;;5022761;28;45256;-76
2023/03/25 07:06:42;;;;;;;2.00;0.30;;;17.80;81.40;;;;;;5022550;28;47573;-76
2023/03/25 07:09:10;;;;;;;0.75;0.20;;;17.70;81.70;;;;;;5022584;28;45210;-77
2023/03/25 07:11:36;;;;;;;0.55;0.30;;;17.80;81.50;;;;;;5022399;28;45289;-77
2023/03/25 07:14:03;;;;;;;0.50;0.30;;;17.70;81.50;;;;;;5022620;28;45456;-77
2023/03/25 07:16:30;;;;;;;1.40;0.38;;;17.70;81.40;;;;;;5023632;28;47355;-77
2023/03/25 07:18:57;;;;;;;1.13;0.30;;;17.70;81.70;;;;;;5025128;28;45171;-77
2023/03/25 07:21:26;;;;;;;2.17;0.32;;;17.70;82.30;;;;;;5025341;28;45088;-77
2023/03/25 07:23:53;;;;;;;1.55;0.38;;;17.80;82.90;;;;;;5025678;28;45225;-77
2023/03/25 07:26:20;;;;;;;0.95;0.30;;;17.70;82.90;;;;;;5025334;28;46016;-77
2023/03/25 07:28:47;;;;;;;0.50;0.38;;;17.70;82.80;;;;;;5025423;28;45302;-77
2023/03/25 07:31:16;;;;;;;1.15;0.47;;;17.70;82.90;;;;;;5025525;28;45135;-77
2023/03/25 07:33:43;;;;;;;2.92;0.57;;;17.70;82.60;;;;;;5025478;28;45243;-76
2023/03/25 07:36:12;;;;;;;0.82;0.25;;;17.70;82.70;;;;;;5025258;28;48824;-77
2023/03/25 07:38:40;;;;;;;0.35;0.22;;;17.70;82.70;;;;;;5025174;28;45211;-75
2023/03/25 07:41:09;;;;;;;4.20;0.57;;;17.70;82.30;;;;;;5025433;28;45077;-76
2023/03/25 07:43:36;;;;;;;0.30;0.20;;;17.70;82.60;;;;;;5025346;28;45531;-76
2023/03/25 07:46:03;;;;;;;2.80;0.32;;;17.70;82.60;;;;;;5025276;28;47646;-76
2023/03/25 07:48:30;;;;;;;0.95;0.40;;;17.60;82.60;;;;;;5024530;28;45572;-77
2023/03/25 07:50:57;;;;;;;1.00;0.40;;;17.60;82.60;;;;;;5025595;28;45123;-77
2023/03/25 07:53:23;;;;;;;1.98;0.38;;;17.60;82.60;;;;;;5025320;28;45436;-76
2023/03/25 07:55:52;;;;;;;2.15;0.30;;;17.60;82.00;;;;;;5024925;28;46998;-76
2023/03/25 07:58:19;;;;;;;1.67;0.38;;;17.60;80.80;;;;;;5024762;28;45233;-75
2023/03/25 08:00:46;;;;;;;0.82;0.30;;;17.60;81.00;;;;;;5025110;28;45078;-76
2023/03/25 08:03:14;;;;;;;2.42;0.60;;;17.60;81.00;;;;;;5024969;28;45111;-76
2023/03/25 08:05:46;;;;;;;1.15;0.30;;;17.50;81.20;;;;;;5024846;28;47902;-76
2023/03/25 08:08:13;;;;;;;1.27;0.30;;;17.50;81.70;;;;;;5024653;28;45150;-76
2023/03/25 08:10:42;;;;;;;1.67;0.40;;;17.60;82.20;;;;;;5024936;28;45205;-76
2023/03/25 08:13:11;;;;;;;2.45;0.50;;;17.60;82.10;;;;;;5025427;28;45154;-76
2023/03/25 08:15:38;;;;;;;1.70;0.50;;;17.60;82.30;;;;;;5024474;28;46810;-76
2023/03/25 08:18:06;;;;;;;1.20;0.40;;;17.60;82.20;;;;;;5024760;28;46243;-77
2023/03/25 08:20:33;;;;;;;1.45;0.38;;;17.60;82.00;;;;;;5024610;28;45299;-76
2023/03/25 08:22:59;;;;;;;1.88;0.45;;;17.60;82.20;;;;;;5024682;28;45503;-76
2023/03/25 08:25:26;;;;;;;2.05;0.65;;;17.60;82.00;;;;;;5024419;28;46291;-77
2023/03/25 08:27:53;;;;;;;3.22;0.50;;;17.60;81.80;;;;;;5023828;28;45475;-77
2023/03/25 08:30:22;;;;;;;1.45;0.50;;;17.70;81.50;;;;;;5025036;28;45169;-76
2023/03/25 08:32:53;;;;;;;2.33;0.60;;;17.60;81.50;;;;;;5024853;28;45416;-77
2023/03/25 08:35:20;;;;;;;0.93;0.32;;;17.60;81.40;;;;;;5024637;28;47518;-76
2023/03/25 08:37:46;;;;;;;1.83;0.40;;;17.60;80.90;;;;;;5024140;28;46245;-77
2023/03/25 08:40:15;;;;;;;0.98;0.30;;;17.60;80.70;;;;;;5024573;28;45129;-77
2023/03/25 08:42:42;;;;;;;2.90;0.52;;;17.60;79.90;;;;;;5024696;28;45449;-77
2023/03/25 08:45:14;;;;;;;2.53;0.50;;;17.60;80.30;;;;;;5024372;28;47659;-76
2023/03/25 08:47:45;;;;;;;2.03;0.52;;;17.60;80.00;;;;;;5024187;28;45215;-77
2023/03/25 08:50:15;;;;;;;1.25;0.63;;;17.70;80.90;;;;;;5025517;28;45241;-77
2023/03/25 08:52:45;;;;;;;1.88;0.50;;;17.60;79.90;;;;;;5024519;28;45459;-77
2023/03/25 08:55:15;;;;;;;2.00;0.50;;;17.60;79.20;;;;;;5024119;28;45483;-77
2023/03/25 08:57:46;;;;;;;0.75;0.40;;;17.60;80.70;;;;;;5023778;28;45139;-77
2023/03/25 09:00:16;;;;;;;2.22;0.40;;;17.70;80.50;;;;;;5024186;28;45271;-77
2023/03/25 09:02:45;;;;;;;1.95;0.50;;;17.70;80.80;;;;;;5024287;28;45529;-77
2023/03/25 09:05:15;;;;;;;0.98;0.43;;;17.70;80.90;;;;;;5023781;28;46690;-77
2023/03/25 09:07:45;;;;;;;2.15;0.55;;;17.70;80.40;;;;;;5023945;28;45196;-78
2023/03/25 09:10:15;;;;;;;2.60;0.70;;;17.70;80.30;;;;;;5024325;28;45365;-77
2023/03/25 09:12:45;;;;;;;3.42;0.98;;;17.70;80.60;;;;;;5024135;28;45116;-77
2023/03/25 09:15:15;;;;;;;2.30;0.52;;;17.70;80.70;;;;;;5024309;28;45630;-76
2023/03/25 09:17:47;;;;;;;3.00;0.45;;;17.70;80.50;;;;;;5023625;28;45233;-77
2023/03/25 09:20:17;;;;;;;3.25;0.77;;;17.70;80.40;;;;;;5023976;28;45362;-77
2023/03/25 09:22:47;;;;;;;2.63;0.50;;;17.60;79.80;;;;;;5026577;28;45365;-77
2023/03/25 09:25:16;;;;;;;2.10;0.50;;;17.60;79.80;;;;;;5024191;28;46525;-77
2023/03/25 09:27:45;;;;;;;2.13;0.70;;;17.60;79.20;;;;;;5023603;28;45238;-77
2023/03/25 09:30:16;;;;;;;2.05;0.47;;;17.60;79.40;;;;;;5024385;28;45275;-77
2023/03/25 09:32:45;;;;;;;1.55;0.50;;;17.60;78.50;;;;;;5023858;28;45471;-77
2023/03/25 09:35:14;;;;;;;3.42;0.68;;;17.70;78.10;;;;;;5023670;28;45550;-77
2023/03/25 09:37:44;;;;;;;1.38;0.50;;;17.60;77.90;;;;;;5023439;28;45235;-77
2023/03/25 09:40:17;;;;;;;1.60;0.50;;;17.60;78.90;;;;;;5023454;28;45233;-77
2023/03/25 09:43:00;;;;;;;0.85;0.43;;;17.60;78.50;;;;;;5023986;28;45503;-76
2023/03/25 09:45:35;;;;;;;2.55;0.65;;;17.60;78.30;;;;;;5023975;28;47566;-76
2023/03/25 09:48:15;;;;;;;2.35;0.75;;;17.60;79.30;;;;;;5023051;28;45141;-76
2023/03/25 09:50:46;;;;;;;0.88;0.40;;;17.70;79.80;;;;;;5023801;28;45352;-76
2023/03/25 09:53:24;;;;;;;3.00;0.70;;;17.70;79.40;;;;;;5024011;28;45403;-76
2023/03/25 09:55:54;;;;;;;2.33;0.52;;;17.70;79.70;;;;;;5023454;28;45928;-76
2023/03/25 09:58:31;;;;;;;1.60;0.52;;;17.70;79.10;;;;;;5023032;28;45120;-77
2023/03/25 10:01:06;;;;;;;1.45;0.28;;;17.70;79.20;;;;;;5023618;28;45214;-76
2023/03/25 10:03:47;;;;;;;1.88;0.43;;;17.70;79.30;;;;;;5023723;28;45218;-77
2023/03/25 10:06:21;;;;;;;2.08;0.65;;;17.70;79.40;;;;;;5023295;28;45838;-77
2023/03/25 10:09:02;;;;;;;1.55;0.68;;;17.70;78.80;;;;;;5023368;28;45401;-77
2023/03/25 10:11:41;;;;;;;2.60;0.40;;;17.70;78.30;;;;;;5023480;28;45426;-76
2023/03/25 10:14:16;;;;;;;2.15;0.65;;;17.70;78.20;;;;;;5023503;28;45402;-77
2023/03/25 10:16:55;;;;;;;0.80;0.47;;;17.70;77.80;;;;;;5026422;28;46036;-77
2023/03/25 10:19:39;;;;;;;1.52;0.38;;;17.70;77.50;;;;;;5022912;28;45229;-76
2023/03/25 10:22:16;;;;;;;3.30;0.88;;;17.70;77.60;;;;;;5023571;28;45145;-77
2023/03/25 10:24:50;;;;;;;3.58;0.68;;;17.70;77.60;;;;;;5023715;28;45240;-77
2023/03/25 10:27:23;;;;;;;2.15;0.70;;;17.70;77.60;;;;;;5022827;28;46470;-77
2023/03/25 10:29:58;;;;;;;2.20;0.50;;;17.60;77.70;;;;;;5022730;28;45246;-76
2023/03/25 10:49:49;;;;;;;2.65;0.70;;;18.30;78.20;;;;;;4964137;28;45336;-76
2023/03/25 10:59:16;;;;;;;3.80;0.82;;;17.80;77.50;;;;;;4971329;28;45596;-76
2023/03/25 11:01:44;;;;;;;1.23;0.77;;;17.80;77.90;;;;;;5007841;28;45474;-76
2023/03/25 11:04:16;;;;;;;2.33;0.70;;;17.80;77.00;;;;;;5051833;28;48232;-75
2023/03/25 11:06:47;;;;;;;3.35;0.50;;;17.90;77.30;;;;;;5069649;28;45916;-76
2023/03/25 11:09:22;;;;;;;2.53;0.75;;;17.90;76.40;;;;;;5072567;28;45249;-76
2023/03/25 11:11:49;;;;;;;2.35;0.60;;;17.90;76.50;;;;;;5066312;28;45216;-76
2023/03/25 11:14:21;;;;;;;2.20;0.60;;;17.90;76.40;;;;;;5068799;28;47717;-76
2023/03/25 11:16:53;;;;;;;4.68;0.70;;;17.90;76.80;;;;;;5068895;28;45910;-76
2023/03/25 11:19:24;;;;;;;1.15;0.47;;;17.90;76.40;;;;;;5069535;28;45291;-75
2023/03/25 11:21:58;;;;;;;1.75;0.70;;;17.90;76.40;;;;;;5069807;28;45459;-75
2023/03/25 11:24:32;;;;;;;1.05;0.63;;;17.90;76.00;;;;;;5068483;28;45236;-76
2023/03/25 11:26:59;;;;;;;2.70;0.68;;;17.90;76.40;;;;;;5068949;28;45564;-75
2023/03/25 11:29:27;;;;;;;3.33;0.60;;;17.90;76.30;;;;;;5068780;28;45269;-76
2023/03/25 11:32:04;;;;;;;3.97;0.70;;;17.90;76.40;;;;;;5068043;28;45455;-75
2023/03/25 11:34:31;;;;;;;1.17;0.50;;;17.90;77.30;;;;;;5068557;28;48337;-74
2023/03/25 11:37:03;;;;;;;1.48;0.73;;;17.90;76.40;;;;;;5067591;28;45359;-74
2023/03/25 11:39:33;;;;;;;3.58;0.75;;;17.90;76.40;;;;;;5059129;28;45379;-74
2023/03/25 11:42:08;;;;;;;5.60;0.65;;;17.90;76.40;;;;;;5068018;28;45387;-74
2023/03/25 11:44:35;;;;;;;1.55;0.55;;;17.90;76.40;;;;;;5067438;28;48245;-74
2023/03/25 11:47:05;;;;;;;2.25;0.68;;;17.90;76.40;;;;;;5067547;28;45146;-75
2023/03/25 11:49:36;;;;;;;2.08;0.55;;;17.90;75.60;;;;;;5050858;28;45312;-74
2023/03/25 11:52:07;;;;;;;2.00;0.60;;;17.90;75.70;;;;;;5067327;28;45425;-75
2023/03/25 11:54:35;;;;;;;2.80;0.65;;;17.90;76.00;;;;;;5067011;28;48934;-75
2023/03/25 11:57:05;;;;;;;1.17;0.63;;;17.90;75.00;;;;;;5067274;28;45295;-75
2023/03/25 11:59:38;;;;;;;1.50;0.52;;;17.90;76.00;;;;;;5059614;28;45206;-75
2023/03/25 12:02:21;;;;;;;2.92;0.95;;;17.90;75.40;;;;;;5069559;28;45347;-74
2023/03/25 12:04:57;;;;;;;2.15;0.60;;;17.80;75.00;;;;;;5066642;28;45219;-74
2023/03/25 12:07:25;;;;;;;3.67;0.80;;;17.80;75.50;;;;;;5066827;28;45343;-74
2023/03/25 12:09:55;;;;;;;0.90;0.50;;;17.90;75.90;;;;;;5067071;28;45268;-75
2023/03/25 12:12:36;;;;;;;4.00;0.90;;;17.80;76.20;;;;;;5068071;28;45286;-75
2023/03/25 12:15:17;;;;;;;1.65;0.57;;;17.80;76.30;;;;;;5067381;28;48452;-74
2023/03/25 12:17:58;;;;;;;1.38;0.50;;;17.80;76.30;;;;;;5062300;28;46130;-74
2023/03/25 12:20:32;;;;;;;2.00;0.47;;;17.80;76.40;;;;;;5067208;28;45415;-74
2023/03/25 12:23:10;;;;;;;1.33;0.70;;;17.80;76.30;;;;;;5066675;28;45175;-74
2023/03/25 12:25:46;;;;;;;3.13;0.65;;;17.80;76.30;;;;;;5046122;28;46295;-75
2023/03/25 12:28:33;;;;;;;1.40;0.65;;;17.90;76.40;;;;;;5065061;28;45284;-74
2023/03/25 12:31:07;;;;;;;2.65;0.65;;;17.90;76.90;;;;;;5066911;28;45276;-74
2023/03/25 12:33:47;;;;;;;3.42;0.80;;;17.90;76.90;;;;;;5066760;28;45332;-74
2023/03/25 12:36:26;;;;;;;1.88;0.60;;;17.90;77.00;;;;;;5056342;28;45364;-74
2023/03/25 12:39:06;;;;;;;2.97;1.42;;;17.90;76.40;;;;;;5060999;28;45352;-74
2023/03/25 12:41:42;;;;;;;1.95;0.60;;;17.80;76.30;;;;;;5050454;28;45574;-74
2023/03/25 12:44:17;;;;;;;2.40;0.50;;;17.80;76.30;;;;;;5066634;28;45405;-74
2023/03/25 12:46:58;;;;;;;3.28;0.57;;;17.80;76.30;;;;;;5066801;28;47059;-74
2023/03/25 12:49:43;;;;;;;1.90;0.70;;;17.80;77.30;;;;;;5066022;28;45697;-75
2023/03/25 12:52:20;;;;;;;1.65;0.77;;;17.80;76.60;;;;;;5066359;28;45258;-75
2023/03/25 12:55:06;;;;;;;1.27;0.50;;;17.80;77.10;;;;;;5070339;28;45280;-75
2023/03/25 12:57:47;;;;;;;2.95;0.70;;;17.70;77.00;;;;;;5067076;28;46321;-75
2023/03/25 13:00:25;;;;;;;3.60;0.93;;;17.70;77.30;;;;;;5066857;28;46028;-75
2023/03/25 13:03:25;;;;;;;2.88;0.47;;;17.70;76.80;;;;;;5067403;28;45082;-75
2023/03/25 13:05:58;;;;;;;3.63;0.98;;;17.70;77.00;;;;;;5067106;28;45530;-75
2023/03/25 13:08:30;;;;;;;1.52;0.50;;;17.80;77.50;;;;;;5066957;28;47292;-75
2023/03/25 13:11:03;;;;;;;1.52;0.55;;;17.80;77.30;;;;;;5067045;28;45181;-75
2023/03/25 13:13:34;;;;;;;1.73;0.55;;;17.80;77.10;;;;;;5066694;28;45234;-75
2023/03/25 13:16:08;;;;;;;1.55;0.65;;;17.80;77.00;;;;;;5066718;28;45459;-75
2023/03/25 13:18:39;;;;;;;2.40;0.73;;;17.80;77.30;;;;;;5066459;28;45402;-75
2023/03/25 13:21:10;;;;;;;2.28;0.50;;;17.80;77.00;;;;;;5066255;28;45287;-74
2023/03/25 13:23:38;;;;;;;3.55;0.80;;;17.80;76.60;;;;;;5065148;28;45359;-74
2023/03/25 13:26:10;;;;;;;1.15;0.50;;;17.80;77.10;;;;;;5065254;28;45384;-75
2023/03/25 13:28:40;;;;;;;3.30;0.52;;;17.80;76.70;;;;;;5064909;28;46749;-74
2023/03/25 13:31:12;;;;;;;2.50;0.73;;;17.80;76.30;;;;;;5064850;28;45265;-74